createdAt,value
2022-12-22T00:01:58.307Z,8.48
2022-12-22T00:04:43.413Z,8.48
2022-12-22T00:07:28.195Z,8.56
2022-12-22T00:10:13.128Z,8.52
2022-12-22T00:12:58.473Z,8.45
2022-12-22T00:15:52.645Z,8.53
2022-12-22T00:18:38.029Z,8.63
2022-12-22T00:21:23.601Z,8.54
2022-12-22T00:24:08.530Z,8.55
2022-12-22T00:26:54.371Z,8.66
2022-12-22T00:29:40.346Z,8.68
2022-12-22T00:32:31.347Z,8.71
2022-12-22T00:35:16.679Z,8.73
2022-12-22T00:38:01.606Z,8.70
2022-12-22T00:40:47.384Z,8.58
2022-12-22T00:43:33.184Z,8.71
2022-12-22T00:46:22.361Z,8.65
2022-12-22T00:49:08.541Z,8.53
2022-12-22T00:51:53.429Z,8.68
2022-12-22T00:54:39.383Z,8.67
2022-12-22T00:57:24.295Z,8.52
2022-12-22T01:00:10.351Z,8.39
2022-12-22T01:02:55.291Z,8.45
2022-12-22T01:05:40.498Z,8.41
2022-12-22T01:08:29.415Z,8.38
2022-12-22T01:11:14.848Z,8.42
2022-12-22T01:14:00.115Z,8.48
2022-12-22T01:16:44.998Z,8.48
2022-12-22T01:19:29.906Z,8.50
2022-12-22T01:22:15.854Z,8.53
2022-12-22T01:25:00.788Z,8.55
2022-12-22T01:27:46.007Z,8.59
2022-12-22T01:30:31.597Z,8.42
2022-12-22T01:33:16.883Z,8.54
2022-12-22T01:36:01.736Z,8.67
2022-12-22T01:38:46.620Z,8.51
2022-12-22T01:41:36.736Z,8.50
2022-12-22T01:44:32.346Z,8.38
2022-12-22T01:47:48.795Z,8.43
2022-12-22T01:50:37.785Z,8.43
2022-12-22T01:53:28.035Z,8.50
2022-12-22T01:56:13.669Z,8.52
2022-12-22T01:59:05.309Z,8.40
2022-12-22T02:01:51.617Z,8.37
2022-12-22T02:04:40.865Z,8.50
2022-12-22T02:07:43.913Z,8.54
2022-12-22T02:11:06.090Z,8.45
2022-12-22T02:14:12.934Z,8.57
2022-12-22T02:17:11.006Z,8.42
2022-12-22T02:20:14.942Z,8.49
2022-12-22T02:23:28.640Z,8.54
2022-12-22T02:26:44.305Z,8.38
2022-12-22T02:29:32.245Z,8.36
2022-12-22T02:32:17.593Z,8.50
2022-12-22T02:35:02.600Z,8.52
2022-12-22T02:37:59.061Z,8.54
2022-12-22T02:41:21.433Z,8.42
2022-12-22T02:44:33.407Z,8.56
2022-12-22T02:47:37.800Z,8.54
2022-12-22T02:50:35.862Z,8.61
2022-12-22T02:53:23.701Z,8.59
2022-12-22T02:56:08.421Z,8.67
2022-12-22T02:58:53.772Z,8.60
2022-12-22T03:01:38.777Z,8.56
2022-12-22T03:04:23.995Z,8.68
2022-12-22T03:07:09.098Z,8.53
2022-12-22T03:09:53.987Z,8.50
2022-12-22T03:12:38.723Z,8.51
2022-12-22T03:15:24.465Z,8.52
2022-12-22T03:18:09.628Z,8.50
2022-12-22T03:20:54.451Z,8.55
2022-12-22T03:23:39.135Z,8.46
2022-12-22T03:26:05.696Z,8.36
2022-12-22T03:28:32.122Z,8.44
2022-12-22T03:31:01.416Z,8.45
2022-12-22T03:33:29.582Z,8.43
2022-12-22T03:35:56.528Z,8.50
2022-12-22T03:38:23.211Z,8.56
2022-12-22T03:40:49.630Z,8.53
2022-12-22T03:43:35.726Z,8.50
2022-12-22T03:46:21.569Z,8.50
2022-12-22T03:49:06.712Z,8.62
2022-12-22T03:51:34.523Z,8.51
2022-12-22T03:54:01.067Z,8.53
2022-12-22T03:56:27.775Z,8.50
2022-12-22T03:58:54.258Z,8.43
2022-12-22T04:01:20.942Z,8.41
2022-12-22T04:03:49.980Z,8.40
2022-12-22T04:06:17.784Z,8.40
2022-12-22T04:08:44.314Z,8.39
2022-12-22T04:11:31.601Z,8.32
2022-12-22T04:13:58.062Z,8.45
2022-12-22T04:16:24.997Z,8.36
2022-12-22T04:18:51.791Z,8.39
2022-12-22T04:21:18.220Z,8.42
2022-12-22T04:23:44.906Z,8.46
2022-12-22T04:26:11.457Z,8.34
2022-12-22T04:28:37.964Z,8.40
2022-12-22T04:31:04.507Z,8.34
2022-12-22T04:33:30.965Z,8.37
2022-12-22T04:35:57.420Z,8.28
2022-12-22T04:38:23.889Z,8.35
2022-12-22T04:40:50.323Z,8.30
2022-12-22T04:43:16.766Z,8.40
2022-12-22T04:45:44.819Z,8.43
2022-12-22T04:48:11.404Z,8.43
2022-12-22T04:50:37.817Z,8.31
2022-12-22T04:53:04.215Z,8.31
2022-12-22T04:55:30.637Z,8.49
2022-12-22T04:57:57.044Z,8.38
2022-12-22T05:00:23.579Z,8.32
2022-12-22T05:02:50.166Z,8.37
2022-12-22T05:05:16.748Z,8.43
2022-12-22T05:07:44.043Z,8.38
2022-12-22T05:10:11.021Z,8.30
2022-12-22T05:12:55.339Z,8.27
2022-12-22T05:15:28.559Z,8.29
2022-12-22T05:17:55.926Z,8.28
2022-12-22T05:20:23.487Z,8.41
2022-12-22T05:22:49.941Z,8.23
2022-12-22T05:25:16.922Z,8.30
2022-12-22T05:27:48.485Z,8.32
2022-12-22T05:30:16.441Z,8.36
2022-12-22T05:32:43.017Z,8.28
2022-12-22T05:35:10.203Z,8.31
2022-12-22T05:37:36.728Z,8.20
2022-12-22T05:40:04.318Z,8.26
2022-12-22T05:42:36.618Z,8.39
2022-12-22T05:45:14.891Z,8.47
2022-12-22T05:47:43.217Z,8.44
2022-12-22T05:50:11.645Z,8.65
2022-12-22T05:52:38.639Z,8.65
2022-12-22T05:55:06.093Z,8.74
2022-12-22T05:57:32.556Z,8.84
2022-12-22T05:59:58.965Z,8.75
2022-12-22T06:02:25.626Z,8.84
2022-12-22T06:04:52.252Z,8.81
2022-12-22T06:07:18.791Z,8.79
2022-12-22T06:09:45.249Z,8.54
2022-12-22T06:12:11.744Z,8.51
2022-12-22T06:14:38.118Z,8.22
2022-12-22T06:17:04.559Z,8.33
2022-12-22T06:19:31.160Z,8.37
2022-12-22T06:21:57.662Z,8.19
2022-12-22T06:24:24.051Z,8.29
2022-12-22T06:26:50.537Z,8.26
2022-12-22T06:29:16.945Z,8.34
2022-12-22T06:31:43.497Z,8.40
2022-12-22T06:34:10.668Z,8.28
2022-12-22T06:36:38.824Z,8.25
2022-12-22T06:39:06.633Z,8.18
2022-12-22T06:41:52.019Z,8.25
2022-12-22T06:44:18.459Z,8.23
2022-12-22T06:46:44.901Z,8.12
2022-12-22T06:49:11.527Z,8.07
2022-12-22T06:51:38.073Z,8.10
2022-12-22T06:54:04.681Z,8.19
2022-12-22T06:56:31.122Z,8.26
2022-12-22T06:58:57.549Z,8.27
2022-12-22T07:01:24.681Z,8.16
2022-12-22T07:03:51.238Z,8.15
2022-12-22T07:06:20.627Z,8.10
2022-12-22T07:08:47.881Z,8.08
2022-12-22T07:11:15.285Z,8.21
2022-12-22T07:13:41.865Z,8.05
2022-12-22T07:16:10.384Z,8.06
2022-12-22T07:18:39.233Z,8.04
2022-12-22T07:21:08.160Z,8.00
2022-12-22T07:23:35.471Z,7.99
2022-12-22T07:26:02.458Z,8.05
2022-12-22T07:28:28.973Z,8.18
2022-12-22T07:30:55.644Z,8.00
2022-12-22T07:33:22.174Z,8.07
2022-12-22T07:35:49.420Z,7.99
2022-12-22T07:38:15.785Z,8.10
2022-12-22T07:40:43.558Z,7.99
2022-12-22T07:43:11.391Z,8.02
2022-12-22T07:45:38.295Z,7.95
2022-12-22T07:48:25.403Z,8.04
2022-12-22T07:50:52.077Z,8.09
2022-12-22T07:53:18.554Z,8.02
2022-12-22T07:55:44.963Z,7.92
2022-12-22T07:58:11.421Z,7.93
2022-12-22T08:00:37.953Z,7.95
2022-12-22T08:03:04.445Z,8.08
2022-12-22T08:05:31.046Z,8.05
2022-12-22T08:07:57.452Z,8.11
2022-12-22T08:10:23.928Z,8.09
2022-12-22T08:12:50.860Z,8.16
2022-12-22T08:15:17.325Z,8.18
2022-12-22T08:17:44.039Z,8.11
2022-12-22T08:20:11.099Z,8.14
2022-12-22T08:22:37.523Z,8.18
2022-12-22T08:25:04.377Z,8.16
2022-12-22T08:27:40.407Z,8.16
2022-12-22T08:30:08.026Z,8.23
2022-12-22T08:32:37.248Z,8.12
2022-12-22T08:35:05.343Z,8.14
2022-12-22T08:37:40.930Z,8.20
2022-12-22T08:40:12.168Z,8.18
2022-12-22T08:42:40.080Z,8.07
2022-12-22T08:45:09.155Z,7.93
2022-12-22T08:47:35.650Z,8.06
2022-12-22T08:50:02.562Z,8.05
2022-12-22T08:52:30.298Z,8.14
2022-12-22T08:54:56.705Z,8.10
2022-12-22T08:57:23.100Z,7.97
2022-12-22T08:59:49.611Z,8.01
2022-12-22T09:02:16.441Z,8.03
2022-12-22T09:04:42.988Z,7.95
2022-12-22T09:07:09.505Z,7.95
2022-12-22T09:09:35.989Z,7.97
2022-12-22T09:12:03.979Z,7.99
2022-12-22T09:14:30.776Z,8.03
2022-12-22T09:16:57.401Z,7.99
2022-12-22T09:19:23.836Z,7.93
2022-12-22T09:21:50.703Z,8.00
2022-12-22T09:24:18.459Z,8.05
2022-12-22T09:26:44.957Z,8.14
2022-12-22T09:29:12.117Z,8.19
2022-12-22T09:31:41.479Z,8.09
2022-12-22T09:34:15.114Z,7.98
2022-12-22T09:36:43.795Z,8.09
2022-12-22T09:39:10.923Z,8.05
2022-12-22T09:41:43.961Z,8.09
2022-12-22T09:44:27.647Z,8.07
2022-12-22T09:46:56.340Z,8.01
2022-12-22T09:49:23.832Z,8.14
2022-12-22T09:51:57.292Z,8.17
2022-12-22T09:54:25.986Z,8.13
2022-12-22T09:56:52.464Z,8.16
2022-12-22T09:59:21.223Z,8.25
2022-12-22T10:01:50.441Z,8.23
2022-12-22T10:04:35.518Z,8.15
2022-12-22T10:07:22.481Z,8.25
2022-12-22T10:09:51.296Z,8.20
2022-12-22T10:12:24.625Z,8.21
2022-12-22T10:14:54.137Z,8.19
2022-12-22T10:17:25.535Z,8.21
2022-12-22T10:19:54.797Z,8.19
2022-12-22T10:22:33.095Z,8.27
2022-12-22T10:25:05.464Z,8.38
2022-12-22T10:27:41.890Z,8.38
2022-12-22T10:30:25.241Z,8.41
2022-12-22T10:33:11.842Z,8.43
2022-12-22T10:35:49.135Z,8.46
2022-12-22T10:38:35.022Z,8.43
2022-12-22T10:41:12.461Z,8.39
2022-12-22T10:43:48.088Z,8.30
2022-12-22T10:46:15.110Z,8.35
2022-12-22T10:48:42.828Z,8.46
2022-12-22T10:51:11.869Z,8.44
2022-12-22T10:53:54.451Z,8.32
2022-12-22T10:56:27.894Z,8.36
2022-12-22T10:58:57.306Z,8.29
2022-12-22T11:01:30.476Z,8.34
2022-12-22T11:03:58.597Z,8.42
2022-12-22T11:06:25.142Z,8.44
2022-12-22T11:08:52.138Z,8.41
2022-12-22T11:11:57.735Z,8.40
2022-12-22T11:14:55.816Z,8.44
2022-12-22T11:17:44.230Z,8.45
2022-12-22T11:20:44.918Z,8.54
2022-12-22T11:23:38.977Z,8.51
2022-12-22T11:26:19.914Z,8.51
2022-12-22T11:29:04.739Z,8.60
2022-12-22T11:31:51.009Z,8.54
2022-12-22T11:35:02.740Z,8.49
2022-12-22T11:37:52.738Z,8.62
2022-12-22T11:40:46.668Z,8.70
2022-12-22T11:43:21.167Z,8.78
2022-12-22T11:45:59.614Z,8.79
2022-12-22T11:48:58.236Z,8.83
2022-12-22T11:51:41.658Z,8.79
2022-12-22T11:54:25.292Z,8.85
2022-12-22T11:57:18.048Z,8.80
2022-12-22T11:59:53.577Z,8.67
2022-12-22T12:02:35.132Z,8.62
2022-12-22T12:05:29.711Z,8.59
2022-12-22T12:08:18.128Z,8.61
2022-12-22T12:10:51.678Z,8.63
2022-12-22T12:13:38.743Z,8.65
2022-12-22T12:16:28.328Z,8.66
2022-12-22T12:19:28.731Z,8.71
2022-12-22T12:21:58.799Z,8.72
2022-12-22T12:24:59.956Z,8.71
2022-12-22T12:27:46.479Z,8.75
2022-12-22T12:33:17.407Z,8.79
2022-12-22T12:36:08.766Z,8.77
2022-12-22T12:39:08.037Z,8.98
2022-12-22T12:41:57.692Z,9.01
2022-12-22T12:44:28.717Z,8.94
2022-12-22T12:47:04.877Z,8.96
2022-12-22T12:49:34.658Z,9.04
2022-12-22T12:52:05.867Z,9.01
2022-12-22T12:54:32.242Z,9.18
2022-12-22T12:57:00.048Z,9.22
2022-12-22T12:59:46.023Z,9.29
2022-12-22T13:02:29.534Z,9.33
2022-12-22T13:05:08.195Z,9.42
2022-12-22T13:08:08.889Z,9.44
2022-12-22T13:10:44.733Z,9.40
2022-12-22T13:13:23.071Z,9.36
2022-12-22T13:16:02.083Z,9.34
2022-12-22T13:18:34.624Z,9.39
2022-12-22T13:24:23.012Z,9.25
2022-12-22T13:26:43.292Z,9.11
2022-12-22T13:29:22.997Z,9.22
2022-12-22T13:31:57.436Z,9.31
2022-12-22T13:34:46.262Z,9.36
2022-12-22T13:37:26.190Z,9.40
2022-12-22T13:40:10.064Z,9.38
2022-12-22T13:42:49.356Z,9.44
2022-12-22T13:45:25.551Z,9.40
2022-12-22T13:47:52.800Z,9.43
2022-12-22T13:50:33.991Z,9.32
2022-12-22T13:53:03.535Z,9.28
2022-12-22T13:55:32.464Z,9.26
2022-12-22T13:58:07.568Z,9.31
2022-12-22T14:00:34.404Z,9.30
2022-12-22T14:03:01.071Z,9.35
2022-12-22T14:05:31.726Z,9.36
2022-12-22T14:08:03.903Z,9.38
2022-12-22T14:10:37.404Z,9.33
2022-12-22T14:13:14.405Z,9.33
2022-12-22T14:15:41.832Z,9.37
2022-12-22T14:18:14.517Z,9.35
2022-12-22T14:20:45.294Z,9.26
2022-12-22T14:23:22.102Z,9.34
2022-12-22T14:25:50.360Z,9.33
2022-12-22T14:28:23.236Z,9.39
2022-12-22T14:30:55.479Z,9.46
2022-12-22T14:33:27.791Z,9.45
2022-12-22T14:36:20.588Z,9.43
2022-12-22T14:38:55.543Z,9.32
2022-12-22T14:41:46.161Z,9.32
2022-12-22T14:44:20.051Z,9.30
2022-12-22T14:47:11.801Z,9.21
2022-12-22T14:50:14.263Z,9.17
2022-12-22T14:52:51.052Z,9.19
2022-12-22T14:55:26.305Z,9.11
2022-12-22T14:57:57.767Z,9.05
2022-12-22T15:00:27.441Z,9.03
2022-12-22T15:02:57.224Z,8.99
2022-12-22T15:05:37.441Z,9.02
2022-12-22T15:08:08.977Z,8.94
2022-12-22T15:10:44.302Z,8.87
2022-12-22T15:13:23.735Z,8.83
2022-12-22T15:15:51.311Z,8.70
2022-12-22T15:18:22.570Z,8.62
2022-12-22T15:20:49.055Z,8.64
2022-12-22T15:23:18.815Z,8.70
2022-12-22T15:25:45.689Z,8.71
2022-12-22T15:28:12.317Z,8.70
2022-12-22T15:30:38.972Z,8.67
2022-12-22T15:33:12.224Z,8.63
2022-12-22T15:35:39.681Z,8.64
2022-12-22T15:38:11.797Z,8.56
2022-12-22T15:40:38.249Z,8.59
2022-12-22T15:43:04.684Z,8.62
2022-12-22T15:45:31.260Z,8.63
2022-12-22T15:47:58.476Z,8.65
2022-12-22T15:50:44.866Z,8.61
2022-12-22T15:53:18.525Z,8.59
2022-12-22T15:55:47.756Z,8.62
2022-12-22T15:58:19.187Z,8.63
2022-12-22T16:00:45.887Z,8.62
2022-12-22T16:03:13.252Z,8.63
2022-12-22T16:05:41.392Z,8.61
2022-12-22T16:08:18.307Z,8.68
2022-12-22T16:10:46.683Z,8.59
2022-12-22T16:13:15.322Z,8.60
2022-12-22T16:15:41.870Z,8.55
2022-12-22T16:18:11.866Z,8.54
2022-12-22T16:20:41.339Z,8.56
2022-12-22T16:23:19.647Z,8.53
2022-12-22T16:25:46.965Z,8.40
2022-12-22T16:28:22.248Z,8.45
2022-12-22T16:30:49.271Z,8.52
2022-12-22T16:33:16.482Z,8.52
2022-12-22T16:35:43.313Z,8.56
2022-12-22T16:38:16.324Z,8.49
2022-12-22T16:40:47.541Z,8.40
2022-12-22T16:46:09.011Z,8.43
2022-12-22T16:48:40.861Z,8.42
2022-12-22T16:51:07.477Z,8.44
2022-12-22T16:53:33.900Z,8.39
2022-12-22T16:56:00.321Z,8.40
2022-12-22T16:58:27.050Z,8.24
2022-12-22T17:00:53.802Z,8.25
2022-12-22T17:03:25.790Z,8.32
2022-12-22T17:05:56.047Z,8.31
2022-12-22T17:08:26.006Z,8.37
2022-12-22T17:10:55.087Z,8.44
2022-12-22T17:13:22.157Z,8.44
2022-12-22T17:15:48.599Z,8.39
2022-12-22T17:18:21.290Z,8.42
2022-12-22T17:20:50.979Z,8.40
2022-12-22T17:23:46.017Z,8.34
2022-12-22T17:26:16.677Z,8.37
2022-12-22T17:28:43.966Z,8.31
2022-12-22T17:31:19.916Z,8.32
2022-12-22T17:33:46.811Z,8.37
2022-12-22T17:36:37.641Z,8.39
2022-12-22T17:39:04.962Z,8.43
2022-12-22T17:41:31.852Z,8.46
2022-12-22T17:43:58.307Z,8.47
2022-12-22T17:46:25.011Z,8.47
2022-12-22T17:48:51.608Z,8.58
2022-12-22T17:51:23.201Z,8.58
2022-12-22T17:53:49.962Z,8.50
2022-12-22T17:56:21.949Z,8.58
2022-12-22T17:58:49.193Z,8.56
2022-12-22T18:01:30.940Z,8.61
2022-12-22T18:03:58.190Z,8.56
2022-12-22T18:06:29.341Z,8.50
2022-12-22T18:08:56.696Z,8.53
2022-12-22T18:11:23.931Z,8.55
2022-12-22T18:13:51.576Z,8.60
2022-12-22T18:16:20.350Z,8.59
2022-12-22T18:18:47.337Z,8.52
2022-12-22T18:21:16.415Z,8.51
2022-12-22T18:23:49.891Z,8.52
2022-12-22T18:26:23.254Z,8.48
2022-12-22T18:28:50.610Z,8.43
2022-12-22T18:31:18.079Z,8.45
2022-12-22T18:33:44.684Z,8.49
2022-12-22T18:36:29.682Z,8.50
2022-12-22T18:38:56.703Z,8.52
2022-12-22T18:41:25.243Z,8.55
2022-12-22T18:43:51.748Z,8.51
2022-12-22T18:46:19.047Z,8.57
2022-12-22T18:48:46.350Z,8.59
2022-12-22T18:51:19.025Z,8.59
2022-12-22T18:53:45.494Z,8.60
2022-12-22T18:56:13.467Z,8.63
2022-12-22T18:58:40.898Z,8.59
2022-12-22T19:01:17.027Z,8.48
2022-12-22T19:03:45.475Z,8.56
2022-12-22T19:06:12.084Z,8.52
2022-12-22T19:08:45.087Z,8.51
2022-12-22T19:11:13.202Z,8.50
2022-12-22T19:13:44.297Z,8.55
2022-12-22T19:16:14.866Z,8.47
2022-12-22T19:18:41.556Z,8.46
2022-12-22T19:21:12.866Z,8.39
2022-12-22T19:23:39.316Z,8.41
2022-12-22T19:26:09.232Z,8.43
2022-12-22T19:28:42.317Z,8.44
2022-12-22T19:31:16.610Z,8.41
2022-12-22T19:33:43.915Z,8.44
2022-12-22T19:36:25.594Z,8.50
2022-12-22T19:39:02.544Z,8.49
2022-12-22T19:41:51.417Z,8.50
2022-12-22T19:44:22.127Z,8.47
2022-12-22T19:46:49.253Z,8.34
2022-12-22T19:49:18.581Z,8.22
2022-12-22T19:51:45.352Z,8.32
2022-12-22T19:54:12.154Z,8.37
2022-12-22T19:56:39.854Z,8.32
2022-12-22T19:59:14.026Z,8.30
2022-12-22T20:01:40.543Z,8.25
2022-12-22T20:04:13.984Z,8.09
2022-12-22T20:06:40.412Z,8.28
2022-12-22T20:09:06.832Z,8.18
2022-12-22T20:11:33.739Z,8.24
2022-12-22T20:14:00.289Z,8.24
2022-12-22T20:16:26.778Z,8.29
2022-12-22T20:18:53.288Z,8.30
2022-12-22T20:21:22.644Z,8.36
2022-12-22T20:23:51.074Z,8.40
2022-12-22T20:26:21.376Z,8.43
2022-12-22T20:28:49.644Z,8.44
2022-12-22T20:31:18.433Z,8.40
2022-12-22T20:33:45.081Z,8.32
2022-12-22T20:36:31.926Z,8.39
2022-12-22T20:38:59.846Z,8.26
2022-12-22T20:41:26.974Z,8.32
2022-12-22T20:43:54.597Z,8.28
2022-12-22T20:46:28.206Z,8.35
2022-12-22T20:49:02.606Z,8.35
2022-12-22T20:51:32.788Z,8.31
2022-12-22T20:53:59.784Z,8.27
2022-12-22T20:56:32.300Z,8.32
2022-12-22T20:59:06.703Z,8.35
2022-12-22T21:01:33.386Z,8.38
2022-12-22T21:03:59.924Z,8.14
2022-12-22T21:06:29.272Z,8.44
2022-12-22T21:08:58.820Z,8.47
2022-12-22T21:11:25.902Z,8.45
2022-12-22T21:13:52.816Z,8.49
2022-12-22T21:16:25.886Z,8.39
2022-12-22T21:18:53.995Z,8.28
2022-12-22T21:21:21.433Z,8.38
2022-12-22T21:23:48.185Z,8.20
2022-12-22T21:26:42.869Z,8.34
2022-12-22T21:29:16.068Z,8.42
2022-12-22T21:31:42.588Z,8.37
2022-12-22T21:34:10.972Z,8.36
2022-12-22T21:36:37.602Z,8.27
2022-12-22T21:39:12.110Z,8.27
2022-12-22T21:41:57.225Z,8.32
2022-12-22T21:44:23.647Z,8.36
2022-12-22T21:46:50.256Z,8.37
2022-12-22T21:49:21.050Z,8.42
2022-12-22T21:51:48.914Z,8.40
2022-12-22T21:54:15.993Z,8.36
2022-12-22T21:56:42.475Z,8.42
2022-12-22T21:59:08.995Z,8.35
2022-12-22T22:01:35.650Z,8.28
2022-12-22T22:04:02.329Z,8.34
2022-12-22T22:06:28.795Z,8.23
2022-12-22T22:08:55.223Z,8.17
2022-12-22T22:11:24.156Z,8.29
2022-12-22T22:13:50.912Z,8.22
2022-12-22T22:16:18.711Z,8.28
2022-12-22T22:18:46.763Z,8.31
2022-12-22T22:21:14.886Z,8.38
2022-12-22T22:23:41.681Z,8.40
2022-12-22T22:26:08.440Z,8.40
2022-12-22T22:28:35.120Z,8.44
2022-12-22T22:31:07.968Z,8.49
2022-12-22T22:33:34.525Z,8.51
2022-12-22T22:36:08.645Z,8.52
2022-12-22T22:38:35.968Z,8.52
2022-12-22T22:41:02.468Z,8.50
2022-12-22T22:43:29.209Z,8.51
2022-12-22T22:45:55.612Z,8.52
2022-12-22T22:48:23.758Z,8.48
2022-12-22T22:50:50.642Z,8.46
2022-12-22T22:53:17.211Z,8.47
2022-12-22T22:55:44.230Z,8.42
2022-12-22T22:58:11.481Z,8.36
2022-12-22T23:00:38.639Z,8.39
2022-12-22T23:03:05.374Z,8.41
2022-12-22T23:05:31.939Z,8.33
2022-12-22T23:07:58.488Z,8.32
2022-12-22T23:10:25.180Z,8.28
2022-12-22T23:12:51.929Z,8.11
2022-12-22T23:15:18.392Z,8.18
2022-12-22T23:17:44.864Z,8.24
2022-12-22T23:20:11.475Z,8.29
2022-12-22T23:22:37.962Z,8.32
2022-12-22T23:25:04.836Z,8.32
2022-12-22T23:27:31.442Z,8.32
2022-12-22T23:29:57.841Z,8.36
2022-12-22T23:32:24.811Z,8.29
2022-12-22T23:34:51.272Z,8.23
2022-12-22T23:37:19.676Z,8.29
2022-12-22T23:39:46.786Z,8.29
2022-12-22T23:42:13.342Z,8.33
2022-12-22T23:44:39.850Z,8.37
2022-12-22T23:47:06.799Z,8.40
2022-12-22T23:49:33.290Z,8.32
2022-12-22T23:51:59.692Z,8.37
2022-12-22T23:54:26.194Z,8.29
2022-12-22T23:56:52.695Z,8.35
2022-12-22T23:59:19.302Z,8.39
